createdAt,value
2018-04-13T00:01:06.654Z,9.87
2018-04-13T00:03:32.635Z,9.97
2018-04-13T00:05:58.636Z,10.30
2018-04-13T00:08:24.627Z,10.20
2018-04-13T00:10:50.635Z,9.47
2018-04-13T00:13:16.615Z,10.00
2018-04-13T00:15:42.610Z,10.40
2018-04-13T00:18:08.591Z,10.27
2018-04-13T00:20:34.603Z,10.10
2018-04-13T00:23:00.583Z,9.93
2018-04-13T00:25:26.579Z,10.00
2018-04-13T00:27:52.563Z,9.53
2018-04-13T00:30:18.547Z,9.57
2018-04-13T00:32:44.555Z,9.73
2018-04-13T00:35:11.303Z,9.90
2018-04-13T00:37:37.307Z,9.53
2018-04-13T00:40:03.294Z,9.10
2018-04-13T00:42:29.300Z,9.47
2018-04-13T00:44:55.287Z,9.67
2018-04-13T00:47:21.299Z,10.23
2018-04-13T00:49:47.284Z,10.07
2018-04-13T00:52:13.282Z,9.93
2018-04-13T00:54:39.267Z,9.73
2018-04-13T00:57:05.275Z,9.10
2018-04-13T00:59:31.263Z,9.80
2018-04-13T01:01:57.263Z,9.67
2018-04-13T01:04:23.247Z,9.23
2018-04-13T01:06:49.251Z,9.27
2018-04-13T01:09:15.235Z,9.33
2018-04-13T01:11:41.237Z,9.60
2018-04-13T01:14:07.231Z,9.20
2018-04-13T01:16:33.237Z,9.37
2018-04-13T01:18:59.227Z,9.30
2018-04-13T01:21:25.206Z,8.70
2018-04-13T01:23:51.951Z,8.87
2018-04-13T01:26:17.939Z,9.60
2018-04-13T01:28:43.934Z,9.37
2018-04-13T01:31:09.914Z,9.23
2018-04-13T01:33:35.916Z,8.77
2018-04-13T01:36:01.916Z,8.87
2018-04-13T01:38:27.915Z,8.73
2018-04-13T01:40:53.891Z,8.80
2018-04-13T01:43:19.899Z,8.83
2018-04-13T01:45:45.892Z,8.90
2018-04-13T01:48:11.896Z,8.17
2018-04-13T01:50:37.883Z,8.57
2018-04-13T01:53:03.895Z,8.97
2018-04-13T01:55:29.879Z,8.53
2018-04-13T01:57:55.875Z,8.60
2018-04-13T02:00:21.864Z,8.90
2018-04-13T02:02:47.867Z,7.73
2018-04-13T02:05:13.851Z,7.83
2018-04-13T02:07:39.828Z,8.50
2018-04-13T02:10:05.836Z,7.73
2018-04-13T02:12:31.816Z,7.43
2018-04-13T02:14:57.814Z,8.83
2018-04-13T02:17:23.811Z,8.27
2018-04-13T02:19:49.799Z,7.97
2018-04-13T02:22:15.791Z,7.90
2018-04-13T02:24:41.795Z,7.67
2018-04-13T02:27:07.771Z,7.77
2018-04-13T02:29:33.771Z,7.77
2018-04-13T02:31:59.759Z,7.47
2018-04-13T02:34:25.899Z,7.17
2018-04-13T02:36:51.759Z,7.27
2018-04-13T02:39:17.752Z,7.17
2018-04-13T02:41:43.731Z,7.50
2018-04-13T02:44:09.735Z,6.90
2018-04-13T02:46:35.730Z,6.80
2018-04-13T02:49:02.471Z,6.87
2018-04-13T02:51:28.467Z,6.43
2018-04-13T02:53:54.471Z,6.87
2018-04-13T02:56:20.451Z,6.67
2018-04-13T02:58:46.435Z,6.57
2018-04-13T03:01:12.438Z,6.47
2018-04-13T03:03:38.418Z,6.60
2018-04-13T03:06:04.420Z,6.80
2018-04-13T03:08:31.147Z,6.77
2018-04-13T03:10:57.143Z,6.83
2018-04-13T03:13:23.122Z,6.50
2018-04-13T03:15:49.137Z,7.10
2018-04-13T03:18:15.127Z,6.23
2018-04-13T03:20:41.127Z,6.53
2018-04-13T03:23:07.114Z,5.90
2018-04-13T03:25:33.119Z,5.87
2018-04-13T03:27:59.103Z,6.13
2018-04-13T03:30:25.103Z,5.70
2018-04-13T03:32:51.083Z,5.87
2018-04-13T03:35:17.099Z,6.20
2018-04-13T03:37:43.087Z,6.00
2018-04-13T03:40:09.096Z,5.80
2018-04-13T03:42:35.082Z,6.17
2018-04-13T03:45:01.111Z,5.97
2018-04-13T03:47:27.099Z,6.03
2018-04-13T03:49:53.083Z,5.70
2018-04-13T03:52:19.086Z,6.00
2018-04-13T03:54:45.085Z,6.07
2018-04-13T03:57:11.092Z,5.50
2018-04-13T03:59:37.095Z,5.50
2018-04-13T04:02:03.111Z,5.87
2018-04-13T04:04:29.094Z,5.80
2018-04-13T04:06:55.110Z,5.77
2018-04-13T04:09:21.853Z,5.50
2018-04-13T04:11:47.855Z,5.20
2018-04-13T04:14:13.867Z,6.03
2018-04-13T04:16:39.891Z,5.77
2018-04-13T04:19:05.877Z,6.20
2018-04-13T04:21:44.251Z,5.70
2018-04-13T04:24:22.579Z,5.70
2018-04-13T04:26:48.603Z,6.10
2018-04-13T04:29:14.583Z,5.87
2018-04-13T04:31:40.582Z,5.43
2018-04-13T04:34:06.562Z,5.97
2018-04-13T04:36:32.571Z,5.40
2018-04-13T04:38:58.571Z,6.03
2018-04-13T04:41:24.551Z,5.97
2018-04-13T04:43:50.547Z,5.70
2018-04-13T04:46:16.536Z,5.83
2018-04-13T04:48:42.535Z,5.53
2018-04-13T04:51:08.515Z,5.93
2018-04-13T04:53:34.517Z,5.60
2018-04-13T04:56:00.502Z,5.87
2018-04-13T04:58:26.520Z,5.50
2018-04-13T05:00:52.495Z,5.90
2018-04-13T05:03:18.495Z,5.63
2018-04-13T05:05:44.475Z,5.27
2018-04-13T05:08:10.470Z,5.20
2018-04-13T05:10:37.191Z,5.10
2018-04-13T05:13:03.186Z,5.57
2018-04-13T05:15:36.116Z,5.00
2018-04-13T05:18:02.120Z,5.50
2018-04-13T05:20:28.103Z,4.97
2018-04-13T05:22:54.103Z,5.30
2018-04-13T05:25:20.079Z,5.27
2018-04-13T05:27:46.083Z,5.67
2018-04-13T05:30:12.094Z,5.50
2018-04-13T05:32:38.072Z,5.00
2018-04-13T05:35:04.099Z,5.30
2018-04-13T05:37:30.078Z,4.73
2018-04-13T05:39:56.070Z,5.23
2018-04-13T05:42:22.068Z,4.93
2018-04-13T05:44:48.063Z,4.80
2018-04-13T05:47:14.041Z,4.83
2018-04-13T05:49:40.036Z,4.93
2018-04-13T05:52:06.767Z,5.30
2018-04-13T05:54:32.795Z,9.17
2018-04-13T05:56:58.779Z,10.87
2018-04-13T05:59:24.788Z,10.43
2018-04-13T06:01:50.775Z,10.07
2018-04-13T06:04:16.780Z,9.93
2018-04-13T06:06:42.775Z,9.00
2018-04-13T06:09:08.784Z,9.33
2018-04-13T06:11:34.737Z,9.00
2018-04-13T06:14:00.723Z,9.43
2018-04-13T06:16:26.724Z,9.43
2018-04-13T06:18:52.756Z,9.10
2018-04-13T06:21:18.711Z,9.07
2018-04-13T06:23:44.695Z,8.97
2018-04-13T06:26:10.698Z,9.23
2018-04-13T06:28:37.439Z,8.50
2018-04-13T06:31:03.443Z,10.00
2018-04-13T06:33:29.426Z,9.57
2018-04-13T06:35:55.439Z,9.07
2018-04-13T06:38:21.415Z,9.63
2018-04-13T06:40:47.415Z,11.17
2018-04-13T06:43:13.400Z,9.57
2018-04-13T06:45:39.394Z,15.17
2018-04-13T06:48:05.640Z,40.50
2018-04-13T06:50:31.654Z,48.53
2018-04-13T06:52:57.638Z,44.27
2018-04-13T06:55:23.635Z,41.87
2018-04-13T06:57:49.611Z,38.80
2018-04-13T07:00:15.624Z,44.10
2018-04-13T07:02:41.607Z,58.27
2018-04-13T07:05:07.587Z,82.10
2018-04-13T07:07:34.326Z,91.23
2018-04-13T07:10:00.307Z,60.27
2018-04-13T07:12:26.307Z,57.83
2018-04-13T07:14:52.290Z,51.87
2018-04-13T07:17:18.287Z,48.73
2018-04-13T07:19:44.267Z,43.20
2018-04-13T07:22:10.255Z,33.73
2018-04-13T07:24:36.234Z,25.90
2018-04-13T07:27:02.251Z,22.37
2018-04-13T07:29:28.239Z,17.70
2018-04-13T07:31:54.247Z,22.30
2018-04-13T07:34:20.243Z,26.40
2018-04-13T07:36:46.995Z,29.63
2018-04-13T07:39:12.976Z,27.43
2018-04-13T07:41:38.975Z,28.17
2018-04-13T07:44:04.962Z,30.70
2018-04-13T07:46:30.976Z,27.07
2018-04-13T07:48:57.137Z,29.17
2018-04-13T07:51:22.943Z,26.00
2018-04-13T07:53:49.684Z,28.30
2018-04-13T07:56:15.659Z,25.37
2018-04-13T07:58:41.660Z,24.63
2018-04-13T08:01:07.648Z,21.33
2018-04-13T08:03:33.619Z,20.43
2018-04-13T08:05:59.604Z,22.43
2018-04-13T08:08:25.595Z,21.30
2018-04-13T08:10:51.579Z,20.23
2018-04-13T08:13:17.549Z,20.33
2018-04-13T08:15:43.519Z,21.67
2018-04-13T08:18:09.516Z,21.63
2018-04-13T08:20:35.499Z,20.93
2018-04-13T08:23:01.499Z,27.20
2018-04-13T08:25:27.507Z,27.33
2018-04-13T08:27:53.503Z,30.97
2018-04-13T08:30:19.503Z,31.93
2018-04-13T08:32:46.243Z,35.73
2018-04-13T08:35:12.267Z,29.57
2018-04-13T08:37:39.007Z,29.80
2018-04-13T08:40:04.994Z,54.53
2018-04-13T08:42:30.979Z,46.30
2018-04-13T08:44:56.983Z,45.37
2018-04-13T08:47:25.092Z,37.37
2018-04-13T08:49:51.091Z,44.40
2018-04-13T08:52:17.046Z,32.50
2018-04-13T08:54:43.270Z,34.03
2018-04-13T08:57:09.263Z,32.37
2018-04-13T08:59:35.267Z,30.30
2018-04-13T09:02:01.476Z,29.93
2018-04-13T09:04:27.475Z,30.80
2018-04-13T09:06:53.450Z,24.83
2018-04-13T09:09:19.447Z,26.63
2018-04-13T09:11:45.422Z,29.27
2018-04-13T09:14:11.424Z,29.13
2018-04-13T09:16:37.407Z,30.47
2018-04-13T09:19:03.436Z,34.33
2018-04-13T09:21:30.159Z,30.23
2018-04-13T09:23:56.122Z,27.73
2018-04-13T09:26:22.104Z,28.00
2018-04-13T09:28:48.103Z,26.40
2018-04-13T09:31:14.095Z,26.90
2018-04-13T09:33:40.072Z,26.50
2018-04-13T09:36:06.075Z,24.40
2018-04-13T09:38:35.308Z,26.87
2018-04-13T09:41:01.502Z,25.30
2018-04-13T09:43:28.051Z,25.07
2018-04-13T09:45:54.054Z,28.63
2018-04-13T09:48:20.039Z,28.50
2018-04-13T09:50:46.046Z,28.93
2018-04-13T09:53:12.066Z,30.47
2018-04-13T09:55:39.269Z,28.80
2018-04-13T09:58:06.048Z,27.27
2018-04-13T10:00:32.799Z,27.23
2018-04-13T10:03:02.390Z,27.93
2018-04-13T10:05:28.378Z,27.10
2018-04-13T10:07:54.419Z,28.13
2018-04-13T10:10:20.383Z,28.53
2018-04-13T10:12:47.074Z,28.87
2018-04-13T10:15:13.049Z,28.63
2018-04-13T10:17:39.007Z,31.27
2018-04-13T10:20:05.004Z,31.57
2018-04-13T10:22:30.981Z,31.90
2018-04-13T10:24:56.946Z,33.63
2018-04-13T10:27:22.911Z,33.87
2018-04-13T10:30:01.650Z,36.23
2018-04-13T10:32:28.007Z,31.50
2018-04-13T10:34:59.758Z,34.33
2018-04-13T10:37:26.517Z,36.17
2018-04-13T10:39:52.532Z,30.70
2018-04-13T10:42:18.549Z,31.53
2018-04-13T10:44:44.536Z,30.70
2018-04-13T10:47:10.540Z,31.50
2018-04-13T10:49:36.524Z,32.20
2018-04-13T10:52:02.493Z,60.50
2018-04-13T10:54:29.603Z,48.37
2018-04-13T10:56:55.797Z,43.07
2018-04-13T10:59:22.520Z,48.47
2018-04-13T11:01:48.519Z,44.67
2018-04-13T11:04:14.508Z,43.93
2018-04-13T11:06:40.507Z,54.03
2018-04-13T11:09:06.487Z,85.70
2018-04-13T11:11:32.489Z,69.23
2018-04-13T11:13:58.483Z,66.90
2018-04-13T11:16:24.463Z,61.23
2018-04-13T11:18:50.500Z,60.90
2018-04-13T11:21:16.447Z,59.33
2018-04-13T11:23:42.446Z,56.27
2018-04-13T11:26:08.428Z,57.77
2018-04-13T11:28:34.456Z,62.70
2018-04-13T11:31:00.444Z,61.10
2018-04-13T11:33:26.429Z,59.20
2018-04-13T11:35:52.427Z,56.13
2018-04-13T11:38:18.423Z,56.97
2018-04-13T11:40:44.439Z,53.90
2018-04-13T11:43:10.450Z,55.40
2018-04-13T11:45:37.171Z,56.57
2018-04-13T11:48:03.171Z,57.17
2018-04-13T11:50:29.497Z,58.03
2018-04-13T11:52:55.495Z,60.73
2018-04-13T11:55:21.475Z,57.03
2018-04-13T11:57:47.519Z,55.83
2018-04-13T12:00:13.504Z,55.07
2018-04-13T12:02:39.498Z,51.97
2018-04-13T12:05:05.495Z,52.57
2018-04-13T12:07:31.480Z,51.93
2018-04-13T12:09:58.223Z,52.97
2018-04-13T12:12:24.270Z,53.77
2018-04-13T12:14:50.270Z,51.10
2018-04-13T12:17:17.030Z,49.57
2018-04-13T12:19:43.035Z,48.00
2018-04-13T12:22:09.763Z,47.30
2018-04-13T12:24:35.763Z,47.80
2018-04-13T12:27:01.751Z,46.73
2018-04-13T12:29:27.758Z,45.20
2018-04-13T12:31:53.747Z,46.87
2018-04-13T12:34:19.754Z,46.07
2018-04-13T12:36:46.691Z,54.27
2018-04-13T12:39:12.695Z,55.23
2018-04-13T12:41:38.674Z,60.73
2018-04-13T12:44:05.432Z,56.07
2018-04-13T12:46:31.419Z,55.00
2018-04-13T12:48:57.426Z,55.37
2018-04-13T12:51:23.423Z,71.70
2018-04-13T12:53:49.460Z,62.40
2018-04-13T12:56:15.454Z,59.70
2018-04-13T12:58:41.414Z,60.47
2018-04-13T13:01:07.423Z,58.90
2018-04-13T13:03:33.418Z,55.83
2018-04-13T13:05:59.427Z,55.10
2018-04-13T13:08:26.916Z,55.73
2018-04-13T13:10:52.890Z,58.07
2018-04-13T13:13:18.866Z,60.13
2018-04-13T13:15:44.856Z,88.17
2018-04-13T13:18:10.860Z,92.90
2018-04-13T13:20:36.871Z,82.67
2018-04-13T13:23:02.890Z,71.47
2018-04-13T13:25:28.888Z,63.73
2018-04-13T13:27:54.842Z,58.03
2018-04-13T13:30:20.843Z,58.50
2018-04-13T13:32:46.827Z,57.73
2018-04-13T13:35:12.832Z,56.93
2018-04-13T13:37:38.835Z,51.97
2018-04-13T13:40:05.551Z,55.43
2018-04-13T13:42:31.548Z,53.30
2018-04-13T13:44:57.537Z,59.40
2018-04-13T13:47:23.531Z,56.70
2018-04-13T13:49:50.331Z,56.00
2018-04-13T13:52:16.349Z,54.97
2018-04-13T13:54:42.339Z,49.33
2018-04-13T13:57:08.338Z,48.13
2018-04-13T13:59:34.323Z,44.30
2018-04-13T14:02:00.323Z,44.53
2018-04-13T14:04:26.304Z,43.60
2018-04-13T14:06:52.299Z,43.90
2018-04-13T14:09:18.290Z,43.73
2018-04-13T14:11:44.286Z,46.50
2018-04-13T14:14:10.265Z,46.07
2018-04-13T14:16:36.255Z,44.47
2018-04-13T14:19:02.239Z,43.47
2018-04-13T14:21:28.255Z,43.50
2018-04-13T14:23:54.246Z,43.83
2018-04-13T14:26:21.311Z,44.13
2018-04-13T14:28:47.343Z,43.20
2018-04-13T14:31:13.331Z,41.90
2018-04-13T14:33:39.343Z,46.70
2018-04-13T14:36:05.339Z,45.53
2018-04-13T14:38:31.351Z,42.87
2018-04-13T14:40:57.331Z,44.33
2018-04-13T14:43:23.319Z,44.40
2018-04-13T14:45:49.299Z,41.83
2018-04-13T14:48:15.304Z,37.57
2018-04-13T14:50:41.283Z,40.17
2018-04-13T14:53:07.291Z,37.83
2018-04-13T14:55:33.307Z,35.50
2018-04-13T14:57:59.303Z,39.13
2018-04-13T15:00:29.103Z,37.23
2018-04-13T15:02:55.091Z,47.10
2018-04-13T15:05:21.074Z,46.53
2018-04-13T15:07:47.070Z,46.60
2018-04-13T15:10:13.055Z,45.50
2018-04-13T15:12:39.040Z,44.30
2018-04-13T15:15:05.036Z,42.77
2018-04-13T15:17:31.044Z,39.00
2018-04-13T15:19:57.055Z,36.77
2018-04-13T15:22:23.036Z,42.10
2018-04-13T15:24:49.056Z,45.60
2018-04-13T15:27:15.047Z,46.27
2018-04-13T15:29:41.050Z,50.07
2018-04-13T15:32:07.039Z,53.40
2018-04-13T15:34:33.047Z,54.13
2018-04-13T15:36:59.047Z,53.33
2018-04-13T15:39:25.059Z,48.57
2018-04-13T15:41:51.439Z,46.17
2018-04-13T15:44:17.417Z,46.83
2018-04-13T15:46:43.398Z,44.17
2018-04-13T15:49:09.396Z,41.83
2018-04-13T15:51:35.408Z,41.07
2018-04-13T15:54:01.425Z,35.87
2018-04-13T15:56:27.419Z,31.67
2018-04-13T15:58:53.426Z,31.43
2018-04-13T16:01:19.415Z,32.00
2018-04-13T16:03:45.398Z,33.53
2018-04-13T16:06:11.407Z,31.77
2018-04-13T16:08:37.387Z,31.87
2018-04-13T16:11:03.388Z,33.20
2018-04-13T16:13:29.383Z,32.37
2018-04-13T16:15:55.383Z,31.03
2018-04-13T16:18:21.367Z,32.37
2018-04-13T16:20:47.363Z,30.90
2018-04-13T16:23:13.348Z,31.57
2018-04-13T16:25:39.351Z,30.80
2018-04-13T16:28:05.339Z,30.30
2018-04-13T16:30:31.339Z,31.87
2018-04-13T16:32:57.323Z,32.17
2018-04-13T16:35:23.334Z,30.57
2018-04-13T16:37:49.719Z,32.60
2018-04-13T16:40:15.739Z,30.30
2018-04-13T16:42:41.732Z,31.40
2018-04-13T16:45:07.731Z,29.67
2018-04-13T16:47:33.718Z,29.67
2018-04-13T16:50:00.012Z,30.77
2018-04-13T16:52:26.043Z,30.43
2018-04-13T16:54:52.027Z,30.37
2018-04-13T16:57:18.011Z,28.90
2018-04-13T16:59:43.995Z,29.90
2018-04-13T17:02:10.016Z,29.27
2018-04-13T17:04:35.999Z,29.77
2018-04-13T17:07:01.998Z,29.17
2018-04-13T17:09:27.998Z,28.33
2018-04-13T17:11:53.999Z,29.40
2018-04-13T17:14:19.987Z,28.37
2018-04-13T17:16:45.988Z,28.90
2018-04-13T17:19:11.975Z,27.87
2018-04-13T17:21:37.970Z,29.57
2018-04-13T17:24:04.703Z,27.53
2018-04-13T17:26:30.699Z,27.37
2018-04-13T17:28:56.736Z,26.73
2018-04-13T17:31:22.723Z,26.53
2018-04-13T17:33:48.706Z,26.67
2018-04-13T17:36:14.735Z,26.97
2018-04-13T17:38:41.467Z,27.30
2018-04-13T17:41:07.455Z,28.07
2018-04-13T17:43:33.459Z,26.73
2018-04-13T17:45:59.443Z,26.13
2018-04-13T17:48:25.460Z,27.77
2018-04-13T17:50:51.443Z,25.30
2018-04-13T17:53:17.442Z,25.33
2018-04-13T17:55:43.438Z,25.70
2018-04-13T17:58:09.443Z,26.27
2018-04-13T18:00:35.490Z,25.50
2018-04-13T18:03:01.450Z,25.97
2018-04-13T18:05:27.440Z,24.07
2018-04-13T18:07:53.451Z,24.73
2018-04-13T18:10:19.436Z,24.70
2018-04-13T18:12:45.440Z,23.20
2018-04-13T18:15:11.810Z,23.80
2018-04-13T18:17:37.811Z,23.30
2018-04-13T18:20:03.799Z,22.73
2018-04-13T18:22:29.795Z,22.73
2018-04-13T18:24:55.783Z,24.20
2018-04-13T18:27:21.791Z,23.40
2018-04-13T18:29:47.796Z,22.57
2018-04-13T18:32:13.780Z,22.03
2018-04-13T18:34:40.522Z,22.40
2018-04-13T18:37:06.524Z,22.93
2018-04-13T18:39:32.600Z,23.03
2018-04-13T18:41:58.527Z,22.17
2018-04-13T18:44:24.526Z,20.40
2018-04-13T18:46:50.511Z,23.17
2018-04-13T18:49:16.511Z,21.33
2018-04-13T18:51:42.495Z,22.20
2018-04-13T18:54:08.491Z,21.03
2018-04-13T18:56:35.215Z,21.10
2018-04-13T18:59:01.223Z,21.07
2018-04-13T19:01:27.215Z,20.50
2018-04-13T19:03:53.210Z,20.33
2018-04-13T19:06:19.202Z,20.97
2018-04-13T19:08:45.207Z,22.20
2018-04-13T19:11:11.209Z,21.57
2018-04-13T19:13:37.203Z,19.80
2018-04-13T19:16:03.212Z,20.20
2018-04-13T19:18:29.210Z,19.63
2018-04-13T19:20:55.211Z,20.90
2018-04-13T19:23:21.200Z,19.60
2018-04-13T19:25:47.204Z,19.47
2018-04-13T19:28:13.191Z,18.93
2018-04-13T19:30:39.218Z,19.10
2018-04-13T19:33:05.207Z,18.23
2018-04-13T19:35:31.223Z,19.43
2018-04-13T19:37:57.215Z,18.53
2018-04-13T19:40:23.215Z,17.67
2018-04-13T19:42:49.199Z,18.20
2018-04-13T19:45:15.216Z,18.47
2018-04-13T19:47:41.207Z,17.57
2018-04-13T19:50:07.208Z,18.30
2018-04-13T19:52:33.199Z,17.67
2018-04-13T19:54:59.199Z,18.70
2018-04-13T19:57:25.183Z,17.93
2018-04-13T19:59:51.192Z,16.83
2018-04-13T20:02:17.191Z,17.47
2018-04-13T20:04:43.195Z,18.80
2018-04-13T20:07:09.187Z,18.63
2018-04-13T20:09:35.171Z,17.90
2018-04-13T20:12:01.192Z,16.93
2018-04-13T20:14:27.181Z,18.53
2018-04-13T20:16:53.183Z,16.47
2018-04-13T20:19:20.846Z,16.90
2018-04-13T20:21:47.059Z,16.93
2018-04-13T20:24:13.043Z,16.87
2018-04-13T20:26:39.039Z,17.10
2018-04-13T20:29:05.027Z,16.33
2018-04-13T20:31:31.022Z,16.40
2018-04-13T20:33:57.007Z,17.17
2018-04-13T20:36:23.018Z,17.07
2018-04-13T20:38:48.990Z,17.43
2018-04-13T20:41:14.983Z,16.70
2018-04-13T20:43:40.967Z,15.97
2018-04-13T20:46:06.959Z,17.00
2018-04-13T20:48:32.939Z,16.57
2018-04-13T20:50:58.939Z,15.53
2018-04-13T20:53:24.927Z,16.27
2018-04-13T20:55:50.927Z,16.17
2018-04-13T20:58:16.923Z,16.03
2018-04-13T21:00:43.638Z,16.33
2018-04-13T21:03:09.628Z,15.97
2018-04-13T21:05:35.607Z,15.93
2018-04-13T21:08:02.351Z,16.93
2018-04-13T21:10:28.335Z,16.37
2018-04-13T21:12:54.335Z,16.47
2018-04-13T21:15:20.315Z,16.07
2018-04-13T21:17:47.051Z,16.80
2018-04-13T21:20:13.775Z,17.53
2018-04-13T21:22:39.779Z,16.73
2018-04-13T21:25:05.773Z,16.50
2018-04-13T21:27:31.768Z,16.47
2018-04-13T21:29:57.743Z,17.20
2018-04-13T21:32:23.734Z,16.77
2018-04-13T21:34:49.715Z,16.63
2018-04-13T21:37:15.730Z,16.20
2018-04-13T21:39:41.715Z,16.80
2018-04-13T21:42:07.704Z,16.70
2018-04-13T21:44:33.699Z,16.80
2018-04-13T21:46:59.675Z,16.63
2018-04-13T21:49:25.683Z,15.93
2018-04-13T21:51:51.687Z,16.83
2018-04-13T21:54:17.683Z,17.20
2018-04-13T21:56:43.704Z,17.23
2018-04-13T21:59:09.663Z,17.17
2018-04-13T22:01:35.645Z,17.30
2018-04-13T22:04:01.647Z,17.37
2018-04-13T22:06:27.628Z,16.63
2018-04-13T22:08:53.630Z,17.60
2018-04-13T22:11:19.608Z,16.23
2018-04-13T22:13:45.624Z,17.17
2018-04-13T22:16:11.612Z,17.10
2018-04-13T22:18:37.607Z,17.50
2018-04-13T22:21:03.595Z,17.20
2018-04-13T22:23:29.590Z,17.20
2018-04-13T22:25:55.575Z,16.80
2018-04-13T22:28:21.578Z,17.63
2018-04-13T22:30:47.560Z,17.77
2018-04-13T22:33:13.535Z,16.90
2018-04-13T22:35:39.546Z,18.20
2018-04-13T22:38:05.531Z,17.60
2018-04-13T22:40:31.530Z,18.07
2018-04-13T22:42:57.515Z,17.73
2018-04-13T22:45:23.520Z,17.33
2018-04-13T22:47:49.503Z,17.83
2018-04-13T22:50:16.294Z,18.03
2018-04-13T22:52:42.248Z,18.33
2018-04-13T22:55:08.994Z,17.07
2018-04-13T22:57:34.988Z,17.40
2018-04-13T23:00:01.000Z,17.30
2018-04-13T23:02:26.983Z,17.27
2018-04-13T23:04:53.006Z,16.97
2018-04-13T23:07:18.987Z,18.23
2018-04-13T23:09:44.987Z,17.00
2018-04-13T23:12:10.979Z,17.20
2018-04-13T23:14:36.983Z,17.63
2018-04-13T23:17:02.994Z,17.07
2018-04-13T23:19:28.975Z,17.40
2018-04-13T23:21:54.976Z,16.63
2018-04-13T23:24:20.963Z,17.27
2018-04-13T23:26:46.968Z,17.00
2018-04-13T23:29:13.212Z,16.83
2018-04-13T23:31:39.211Z,17.03
2018-04-13T23:34:05.197Z,16.03
2018-04-13T23:36:31.211Z,17.17
2018-04-13T23:38:57.196Z,17.00
2018-04-13T23:41:23.194Z,16.53
2018-04-13T23:43:49.186Z,16.57
2018-04-13T23:46:15.190Z,17.57
2018-04-13T23:48:41.175Z,17.00
2018-04-13T23:51:07.179Z,16.80
2018-04-13T23:53:33.153Z,16.77
2018-04-13T23:55:59.160Z,17.30
2018-04-13T23:58:25.150Z,16.73
